Time;durP1;ratioP1;P1;durP2;ratioP2;P2;SDS_P1;SDS_P2;PMS_P1;PMS_P2;Temp;Humidity;BMP_temperature;BMP_pressure;BME280_temperature;BME280_humidity;BME280_pressure;Samples;Min_cycle;Max_cycle;Signal;HPM_P1;HPM_P2
2023/05/09 00:01:20;;;;;;;50.47;33.85;;;15.30;99.90;;;;;;5016006;28;20046;-74
2023/05/09 00:03:46;;;;;;;49.22;34.28;;;15.30;99.90;;;;;;5015960;28;20379;-73
2023/05/09 00:06:12;;;;;;;52.90;34.30;;;15.30;99.90;;;;;;4998483;28;20046;-74
2023/05/09 00:08:38;;;;;;;45.78;30.42;;;15.20;99.90;;;;;;5015975;28;20056;-73
2023/05/09 00:11:04;;;;;;;59.58;36.25;;;15.20;99.90;;;;;;5015524;28;20408;-74
2023/05/09 00:13:29;;;;;;;48.15;30.75;;;15.30;99.90;;;;;;5015549;28;20137;-74
2023/05/09 00:15:56;;;;;;;50.55;30.77;;;15.30;99.90;;;;;;5015824;28;20510;-74
2023/05/09 00:18:22;;;;;;;51.55;32.80;;;15.20;99.90;;;;;;4982087;28;20050;-73
2023/05/09 00:20:49;;;;;;;46.78;31.10;;;14.80;99.90;;;;;;5015779;28;20057;-74
2023/05/09 00:23:15;;;;;;;45.67;28.92;;;15.20;99.90;;;;;;5015438;28;20046;-73
2023/05/09 00:25:41;;;;;;;36.47;24.83;;;15.10;99.90;;;;;;4998492;28;20120;-74
2023/05/09 00:28:07;;;;;;;46.80;28.55;;;15.10;99.90;;;;;;5015136;28;20042;-74
2023/05/09 00:30:33;;;;;;;48.50;29.95;;;15.10;99.90;;;;;;4997703;28;20100;-74
2023/05/09 00:32:58;;;;;;;43.40;28.13;;;15.20;99.90;;;;;;5015228;28;20077;-74
2023/05/09 00:35:24;;;;;;;44.65;28.25;;;15.10;99.90;;;;;;5015138;28;20057;-74
2023/05/09 00:37:50;;;;;;;46.03;29.67;;;15.10;99.90;;;;;;5015555;28;20041;-73
2023/05/09 00:40:16;;;;;;;41.50;26.63;;;15.10;99.90;;;;;;5015181;28;20072;-74
2023/05/09 00:42:41;;;;;;;46.10;27.42;;;15.10;99.90;;;;;;5015614;28;20049;-74
2023/05/09 00:45:08;;;;;;;45.70;28.92;;;15.10;99.90;;;;;;5015461;28;20206;-74
2023/05/09 00:47:34;;;;;;;44.35;26.73;;;15.10;99.90;;;;;;5015009;28;20061;-74
2023/05/09 00:50:01;;;;;;;49.95;31.20;;;15.10;99.90;;;;;;5013697;28;20613;-74
2023/05/09 00:52:27;;;;;;;39.92;27.40;;;15.10;99.90;;;;;;5014964;28;20129;-74
2023/05/09 00:54:54;;;;;;;47.90;31.77;;;15.00;99.90;;;;;;5015257;28;20151;-74
2023/05/09 00:57:23;;;;;;;41.65;26.67;;;15.00;99.90;;;;;;5014687;28;20054;-74
2023/05/09 00:59:49;;;;;;;46.72;31.27;;;15.00;99.90;;;;;;4997492;28;20538;-74
2023/05/09 01:02:16;;;;;;;46.03;27.77;;;15.00;99.90;;;;;;5014681;28;20049;-74
2023/05/09 01:04:44;;;;;;;46.90;29.33;;;15.10;99.90;;;;;;4997573;28;20049;-76
2023/05/09 01:07:20;;;;;;;45.70;27.27;;;15.00;99.90;;;;;;5015011;28;20050;-74
2023/05/09 01:10:10;;;;;;;48.42;31.02;;;15.00;99.90;;;;;;5014506;28;20046;-74
2023/05/09 01:12:58;;;;;;;50.03;31.88;;;15.00;99.90;;;;;;4997791;28;20533;-74
2023/05/09 01:15:35;;;;;;;48.20;29.50;;;15.00;99.90;;;;;;4997317;28;20080;-74
2023/05/09 01:18:42;;;;;;;49.33;32.75;;;15.00;99.90;;;;;;5014708;28;20403;-74
2023/05/09 01:21:13;;;;;;;49.53;32.97;;;15.00;99.90;;;;;;5014338;28;20219;-74
2023/05/09 01:23:42;;;;;;;47.03;30.80;;;15.00;99.90;;;;;;4997376;28;20107;-75
2023/05/09 01:26:46;;;;;;;43.05;26.67;;;15.00;99.90;;;;;;5014179;28;20108;-75
2023/05/09 01:29:45;;;;;;;44.85;30.52;;;15.10;99.90;;;;;;5014450;28;20057;-75
2023/05/09 01:32:24;;;;;;;54.33;34.78;;;15.20;99.90;;;;;;4996543;28;20173;-75
2023/05/09 01:34:53;;;;;;;53.72;34.55;;;15.20;99.90;;;;;;4997487;28;20089;-75
2023/05/09 01:37:25;;;;;;;53.20;35.63;;;15.20;99.90;;;;;;5014031;28;20085;-75
2023/05/09 01:39:56;;;;;;;58.95;35.67;;;15.10;99.90;;;;;;4996970;28;20058;-75
2023/05/09 01:42:24;;;;;;;51.78;33.08;;;15.10;99.90;;;;;;4996831;28;20057;-75
2023/05/09 01:44:52;;;;;;;61.33;35.83;;;15.10;99.90;;;;;;5013524;28;20463;-75
2023/05/09 01:47:18;;;;;;;49.58;31.40;;;15.10;99.90;;;;;;5013848;28;20540;-75
2023/05/09 01:49:46;;;;;;;57.38;34.08;;;15.10;99.90;;;;;;4996648;28;20368;-74
2023/05/09 01:52:15;;;;;;;56.20;35.88;;;15.10;99.90;;;;;;5014016;28;20046;-75
2023/05/09 01:54:43;;;;;;;56.80;36.95;;;15.10;99.90;;;;;;5013737;28;20042;-75
2023/05/09 01:57:10;;;;;;;65.15;39.22;;;15.10;99.90;;;;;;5014083;28;20489;-75
2023/05/09 01:59:41;;;;;;;58.35;38.13;;;15.00;99.90;;;;;;5013627;28;20441;-75
2023/05/09 02:02:08;;;;;;;60.85;38.35;;;15.00;99.90;;;;;;5013688;28;20068;-75
2023/05/09 02:04:35;;;;;;;63.83;38.05;;;15.10;99.90;;;;;;5013599;28;20103;-75
2023/05/09 02:07:01;;;;;;;59.80;37.67;;;15.00;99.90;;;;;;5013459;28;20076;-75
2023/05/09 02:09:27;;;;;;;57.78;39.58;;;15.00;99.90;;;;;;4995982;28;20375;-75
2023/05/09 02:11:53;;;;;;;54.80;37.00;;;15.10;99.90;;;;;;5013393;28;20052;-75
2023/05/09 02:14:19;;;;;;;58.55;35.65;;;15.10;99.90;;;;;;5012460;28;20146;-75
2023/05/09 02:16:45;;;;;;;61.05;38.28;;;15.10;99.90;;;;;;5013896;28;20052;-75
2023/05/09 02:19:10;;;;;;;66.97;40.28;;;15.10;99.90;;;;;;5013663;28;20497;-76
2023/05/09 02:21:36;;;;;;;57.72;38.25;;;15.10;99.90;;;;;;5013724;28;20049;-75
2023/05/09 02:24:02;;;;;;;58.03;38.13;;;15.10;99.90;;;;;;4996007;28;20052;-75
2023/05/09 02:26:29;;;;;;;61.40;36.80;;;15.10;99.90;;;;;;4996538;28;20533;-76
2023/05/09 02:28:55;;;;;;;63.08;41.47;;;15.10;99.90;;;;;;4979655;28;20045;-75
2023/05/09 02:31:24;;;;;;;57.28;36.95;;;15.10;99.90;;;;;;5013409;28;20050;-75
2023/05/09 02:33:51;;;;;;;59.92;35.80;;;15.20;99.90;;;;;;5013131;28;20042;-75
2023/05/09 02:36:18;;;;;;;59.15;37.13;;;15.10;99.90;;;;;;4995752;28;20053;-75
2023/05/09 02:38:44;;;;;;;71.20;41.63;;;15.10;99.90;;;;;;4995632;28;20076;-75
2023/05/09 02:41:13;;;;;;;64.47;38.95;;;15.10;99.90;;;;;;5012857;28;20059;-75
2023/05/09 02:43:39;;;;;;;62.13;38.28;;;15.10;99.90;;;;;;4996212;28;20433;-75
2023/05/09 02:46:05;;;;;;;65.63;38.42;;;15.10;99.90;;;;;;5012933;28;20057;-83
2023/05/09 02:48:31;;;;;;;64.65;40.35;;;15.20;99.90;;;;;;4995286;28;20056;-75
2023/05/09 02:50:57;;;;;;;60.40;39.00;;;15.10;99.90;;;;;;4995313;28;20050;-75
2023/05/09 02:53:23;;;;;;;63.90;40.20;;;15.10;99.90;;;;;;5013221;28;20133;-75
2023/05/09 02:55:49;;;;;;;59.72;36.80;;;15.10;99.90;;;;;;5013335;28;20061;-74
2023/05/09 02:58:15;;;;;;;60.55;37.72;;;15.10;99.90;;;;;;4995822;28;20515;-75
2023/05/09 03:00:41;;;;;;;56.92;36.53;;;15.10;99.90;;;;;;4995490;28;20084;-74
2023/05/09 03:03:07;;;;;;;53.80;32.70;;;15.10;99.90;;;;;;5013420;28;20075;-75
2023/05/09 03:05:33;;;;;;;66.57;40.10;;;15.10;99.90;;;;;;4995525;28;20050;-75
2023/05/09 03:07:59;;;;;;;58.58;36.53;;;15.20;99.90;;;;;;5013065;28;20121;-74
2023/05/09 03:10:25;;;;;;;71.78;43.20;;;15.20;99.90;;;;;;5012668;28;20050;-74
2023/05/09 03:12:50;;;;;;;63.25;40.63;;;15.20;99.90;;;;;;5013851;28;20057;-75
2023/05/09 03:15:16;;;;;;;60.63;38.03;;;15.30;99.90;;;;;;5016924;28;20053;-75
2023/05/09 03:17:42;;;;;;;63.15;40.40;;;15.30;99.90;;;;;;4999745;28;20486;-75
2023/05/09 03:20:09;;;;;;;67.88;43.65;;;15.30;99.90;;;;;;5016652;28;20482;-75
2023/05/09 03:22:35;;;;;;;59.78;36.38;;;15.30;99.90;;;;;;5016950;28;20424;-75
2023/05/09 03:25:02;;;;;;;62.95;38.00;;;15.30;99.90;;;;;;4999096;28;20054;-75
2023/05/09 03:27:28;;;;;;;67.90;39.10;;;15.30;99.90;;;;;;4999663;28;20052;-76
2023/05/09 03:29:54;;;;;;;63.10;40.33;;;15.30;99.90;;;;;;5016794;28;20041;-75
2023/05/09 03:32:19;;;;;;;58.08;36.95;;;15.30;99.90;;;;;;4982866;28;20184;-75
2023/05/09 03:34:45;;;;;;;69.20;40.67;;;15.30;99.90;;;;;;5016737;28;20042;-75
2023/05/09 03:37:11;;;;;;;67.00;40.45;;;15.30;99.90;;;;;;5015958;28;20104;-75
2023/05/09 03:39:36;;;;;;;66.82;42.28;;;15.30;99.90;;;;;;5016496;28;20058;-76
2023/05/09 03:42:02;;;;;;;62.92;38.67;;;15.30;99.90;;;;;;5016167;28;20537;-75
2023/05/09 03:44:28;;;;;;;68.82;40.92;;;15.30;99.90;;;;;;5016224;28;20478;-75
2023/05/09 03:46:53;;;;;;;59.03;36.28;;;15.30;99.90;;;;;;5016080;28;20141;-76
2023/05/09 03:49:19;;;;;;;55.53;33.90;;;15.30;99.90;;;;;;5016475;28;20050;-75
2023/05/09 03:51:45;;;;;;;59.22;39.33;;;15.30;99.90;;;;;;5016301;28;20502;-75
2023/05/09 03:54:11;;;;;;;56.53;34.42;;;15.40;99.90;;;;;;5015875;28;20527;-75
2023/05/09 03:56:36;;;;;;;56.15;33.92;;;15.40;99.90;;;;;;5016073;28;20071;-75
2023/05/09 03:59:02;;;;;;;57.95;33.83;;;15.40;99.90;;;;;;4998742;28;20058;-76
2023/05/09 04:01:28;;;;;;;48.60;32.13;;;15.40;99.90;;;;;;5016018;28;20053;-75
2023/05/09 04:03:56;;;;;;;46.75;29.90;;;15.30;99.90;;;;;;5015964;28;20107;-74
2023/05/09 04:06:22;;;;;;;48.38;30.65;;;15.30;99.90;;;;;;5015835;28;20054;-74
2023/05/09 04:08:48;;;;;;;42.60;29.48;;;15.30;99.90;;;;;;4982447;28;20426;-75
2023/05/09 04:11:14;;;;;;;47.42;32.22;;;15.30;99.90;;;;;;5015863;28;20050;-82
2023/05/09 04:13:40;;;;;;;39.25;25.90;;;15.30;99.90;;;;;;4966440;28;20049;-76
2023/05/09 04:16:05;;;;;;;41.72;28.55;;;15.30;99.90;;;;;;5015572;28;20049;-75
2023/05/09 04:18:31;;;;;;;47.28;25.88;;;15.30;99.90;;;;;;5015646;28;20038;-75
2023/05/09 04:20:57;;;;;;;37.40;25.23;;;15.30;99.90;;;;;;5015475;28;20564;-75
2023/05/09 04:23:23;;;;;;;34.72;24.38;;;15.30;99.90;;;;;;5015472;28;20050;-75
2023/05/09 04:25:50;;;;;;;37.40;25.00;;;15.30;99.90;;;;;;4998011;28;20045;-75
2023/05/09 04:28:16;;;;;;;36.40;24.15;;;15.30;99.90;;;;;;5015133;28;20046;-76
2023/05/09 04:30:42;;;;;;;39.28;24.30;;;15.30;99.90;;;;;;5015140;28;20069;-76
2023/05/09 04:33:07;;;;;;;39.78;25.13;;;15.30;99.90;;;;;;4981637;28;20493;-75
2023/05/09 04:35:33;;;;;;;31.15;21.13;;;15.30;99.90;;;;;;5014963;28;20046;-75
2023/05/09 04:37:59;;;;;;;33.50;22.02;;;15.30;99.90;;;;;;5015100;28;20096;-76
2023/05/09 04:40:25;;;;;;;31.17;22.55;;;15.40;99.90;;;;;;5015129;28;20054;-76
2023/05/09 04:42:50;;;;;;;36.10;24.55;;;15.40;99.90;;;;;;5014909;28;20053;-76
2023/05/09 04:45:16;;;;;;;27.73;21.13;;;15.40;99.90;;;;;;5015248;28;20041;-76
2023/05/09 04:47:42;;;;;;;25.75;19.05;;;15.40;99.90;;;;;;4998130;28;20042;-76
2023/05/09 04:50:08;;;;;;;25.20;18.75;;;15.40;99.90;;;;;;5015328;28;20077;-75
2023/05/09 04:52:34;;;;;;;22.85;16.83;;;15.40;99.90;;;;;;5014819;28;20045;-76
2023/05/09 04:55:00;;;;;;;22.10;16.77;;;15.40;99.90;;;;;;5014798;28;20471;-76
2023/05/09 04:57:26;;;;;;;22.63;17.15;;;15.40;99.90;;;;;;5014699;28;20046;-76
2023/05/09 04:59:51;;;;;;;19.25;15.90;;;15.40;99.90;;;;;;5014725;28;20049;-76
2023/05/09 05:02:18;;;;;;;22.45;15.05;;;15.40;99.90;;;;;;4997205;28;20053;-76
2023/05/09 05:04:43;;;;;;;18.48;14.63;;;15.30;99.90;;;;;;5014594;28;20058;-76
2023/05/09 05:07:09;;;;;;;22.20;16.08;;;15.30;99.90;;;;;;5014961;28;20129;-76
2023/05/09 05:09:35;;;;;;;17.83;15.07;;;15.30;99.90;;;;;;4997109;28;20125;-75
2023/05/09 05:12:01;;;;;;;19.45;14.60;;;15.30;99.90;;;;;;5014211;28;20054;-77
2023/05/09 05:14:26;;;;;;;18.40;14.55;;;15.30;99.90;;;;;;5014404;28;20046;-77
2023/05/09 05:16:52;;;;;;;20.63;15.80;;;15.30;99.90;;;;;;5014332;28;20111;-76
2023/05/09 05:19:18;;;;;;;19.80;14.68;;;15.30;99.90;;;;;;4996664;28;20125;-77
2023/05/09 05:21:43;;;;;;;21.58;15.52;;;15.30;99.90;;;;;;5014254;28;20053;-77
2023/05/09 05:24:09;;;;;;;20.30;15.73;;;15.30;99.90;;;;;;5014198;28;20053;-77
2023/05/09 05:26:35;;;;;;;18.05;13.75;;;15.20;99.90;;;;;;5013997;28;20045;-76
2023/05/09 05:29:00;;;;;;;22.77;15.35;;;15.20;99.90;;;;;;5013723;28;20479;-76
2023/05/09 05:31:26;;;;;;;18.83;15.38;;;15.20;99.90;;;;;;5014178;28;20041;-76
2023/05/09 05:33:51;;;;;;;19.70;16.20;;;15.20;99.90;;;;;;5014414;28;20462;-76
2023/05/09 05:36:17;;;;;;;23.92;17.15;;;15.20;99.90;;;;;;5013530;28;20553;-78
2023/05/09 05:38:43;;;;;;;21.75;17.30;;;15.20;99.90;;;;;;5013726;28;20516;-76
2023/05/09 05:41:10;;;;;;;21.23;17.00;;;15.20;99.90;;;;;;5013911;28;20054;-77
2023/05/09 05:43:36;;;;;;;23.27;17.70;;;15.20;99.90;;;;;;5013941;28;20049;-77
2023/05/09 05:46:01;;;;;;;25.65;17.33;;;15.30;99.90;;;;;;5013507;28;20516;-76
2023/05/09 05:48:27;;;;;;;17.35;14.68;;;15.30;99.90;;;;;;5013577;28;20050;-77
2023/05/09 05:50:53;;;;;;;19.05;15.25;;;15.30;99.90;;;;;;4980085;28;20444;-77
2023/05/09 05:53:18;;;;;;;20.45;16.08;;;15.30;99.90;;;;;;4997041;28;20124;-76
2023/05/09 05:55:45;;;;;;;22.67;16.92;;;15.30;99.90;;;;;;4996578;28;20093;-76
2023/05/09 05:58:11;;;;;;;21.33;16.38;;;15.40;99.90;;;;;;5013411;28;20046;-77
2023/05/09 06:00:37;;;;;;;26.13;17.05;;;15.40;99.90;;;;;;5013849;28;20049;-77
2023/05/09 06:03:02;;;;;;;27.95;16.90;;;15.40;99.90;;;;;;5013568;28;20049;-77
2023/05/09 06:05:28;;;;;;;21.77;16.50;;;15.40;99.90;;;;;;5013516;28;20111;-77
2023/05/09 06:07:54;;;;;;;21.98;17.15;;;15.50;99.90;;;;;;5013413;28;20509;-77
2023/05/09 06:10:20;;;;;;;20.98;16.35;;;15.50;99.90;;;;;;5013323;28;20061;-77
2023/05/09 06:12:45;;;;;;;25.20;17.02;;;15.50;99.90;;;;;;5013234;28;20054;-77
2023/05/09 06:15:11;;;;;;;21.30;16.50;;;15.60;99.90;;;;;;5013283;28;20045;-77
2023/05/09 06:17:37;;;;;;;21.77;16.20;;;15.60;99.90;;;;;;5013174;28;20050;-77
2023/05/09 06:20:03;;;;;;;25.77;17.42;;;15.60;99.90;;;;;;4995960;28;20050;-77
2023/05/09 06:22:28;;;;;;;23.67;18.40;;;15.70;99.90;;;;;;5013105;28;20049;-77
2023/05/09 06:24:54;;;;;;;23.90;17.63;;;15.80;99.90;;;;;;4996018;28;20054;-76
2023/05/09 06:27:20;;;;;;;19.88;16.95;;;15.90;99.90;;;;;;4996054;28;20057;-77
2023/05/09 06:29:45;;;;;;;27.25;17.48;;;15.90;99.90;;;;;;4996136;28;20057;-77
2023/05/09 06:32:14;;;;;;;23.92;18.23;;;16.00;99.90;;;;;;5013508;28;20049;-78
2023/05/09 06:34:40;;;;;;;26.15;17.92;;;16.00;99.90;;;;;;4995701;28;20104;-78
2023/05/09 06:37:06;;;;;;;25.58;17.52;;;16.10;99.90;;;;;;5013281;28;20053;-77
2023/05/09 06:39:32;;;;;;;24.13;17.75;;;16.20;99.90;;;;;;5012972;28;20529;-77
2023/05/09 06:41:58;;;;;;;22.23;17.45;;;16.20;99.90;;;;;;5013190;28;20050;-77
2023/05/09 06:44:24;;;;;;;22.92;17.95;;;16.30;99.90;;;;;;5012901;28;20175;-78
2023/05/09 06:46:50;;;;;;;30.70;19.65;;;16.40;99.90;;;;;;4995483;28;20104;-77
2023/05/09 06:49:15;;;;;;;26.38;20.10;;;16.60;99.90;;;;;;5012977;28;20042;-77
2023/05/09 06:51:41;;;;;;;27.52;19.55;;;16.40;99.90;;;;;;5013411;28;20112;-77
2023/05/09 06:54:06;;;;;;;25.05;19.25;;;16.40;99.90;;;;;;4996180;28;20052;-77
2023/05/09 06:56:32;;;;;;;29.02;20.30;;;16.40;99.90;;;;;;4995456;28;20514;-76
2023/05/09 06:58:58;;;;;;;26.42;19.33;;;16.40;99.90;;;;;;4995736;28;20461;-77
2023/05/09 07:01:24;;;;;;;30.92;22.08;;;16.30;99.90;;;;;;5013404;28;20049;-77
2023/05/09 07:03:49;;;;;;;32.85;22.42;;;16.30;99.90;;;;;;5012450;28;20045;-77
2023/05/09 07:06:15;;;;;;;35.85;24.30;;;16.40;99.90;;;;;;5013013;28;20103;-76
2023/05/09 07:08:41;;;;;;;35.83;24.08;;;16.30;99.90;;;;;;5012485;28;20096;-77
2023/05/09 07:11:06;;;;;;;34.75;25.85;;;16.30;99.90;;;;;;5012480;28;20076;-77
2023/05/09 07:13:32;;;;;;;33.90;23.60;;;16.30;99.90;;;;;;5012593;28;20046;-77
2023/05/09 07:15:57;;;;;;;36.13;23.52;;;16.30;99.90;;;;;;5012285;28;20093;-72
2023/05/09 07:18:23;;;;;;;42.60;27.58;;;16.30;99.90;;;;;;4995512;28;20142;-73
2023/05/09 07:20:49;;;;;;;41.42;28.60;;;16.30;99.90;;;;;;5012536;28;20204;-73
2023/05/09 07:23:15;;;;;;;42.78;29.08;;;16.30;99.90;;;;;;5012692;28;20507;-73
2023/05/09 07:25:41;;;;;;;48.25;30.60;;;16.30;99.90;;;;;;4995167;28;20061;-72
2023/05/09 07:28:06;;;;;;;47.38;29.83;;;16.30;99.90;;;;;;5012907;28;20100;-76
2023/05/09 07:30:32;;;;;;;44.83;28.17;;;16.30;99.90;;;;;;5012519;28;20042;-86
2023/05/09 07:32:58;;;;;;;47.83;28.98;;;16.40;99.90;;;;;;4995044;28;20046;-77
2023/05/09 07:35:23;;;;;;;51.28;32.92;;;16.30;99.90;;;;;;5012216;28;20042;-78
2023/05/09 07:37:49;;;;;;;51.15;31.65;;;16.30;99.90;;;;;;5012338;28;20173;-76
2023/05/09 07:40:15;;;;;;;56.05;31.27;;;16.30;99.90;;;;;;4994706;28;20058;-81
2023/05/09 07:42:43;;;;;;;57.45;31.38;;;16.30;99.90;;;;;;5012133;28;20107;-79
2023/05/09 07:45:10;;;;;;;51.22;33.65;;;16.40;99.90;;;;;;5012766;28;20184;-77
2023/05/09 07:47:35;;;;;;;50.42;30.67;;;16.40;99.90;;;;;;5012114;28;20192;-77
2023/05/09 07:50:01;;;;;;;52.58;31.38;;;16.40;99.90;;;;;;5012716;28;20129;-78
2023/05/09 07:52:27;;;;;;;50.33;30.95;;;16.40;99.90;;;;;;5012345;28;20472;-76
2023/05/09 07:54:53;;;;;;;55.78;31.77;;;16.40;99.90;;;;;;5012144;28;20446;-76
2023/05/09 07:57:19;;;;;;;52.78;32.28;;;16.50;99.90;;;;;;5012143;28;20533;-77
2023/05/09 07:59:44;;;;;;;43.17;30.05;;;16.60;99.90;;;;;;5015150;28;20073;-75
2023/05/09 08:02:10;;;;;;;50.65;31.00;;;16.60;99.90;;;;;;4998384;28;20117;-76
2023/05/09 08:04:37;;;;;;;50.78;31.40;;;16.70;99.90;;;;;;4998652;28;20049;-74
2023/05/09 08:07:04;;;;;;;55.15;30.90;;;16.70;99.90;;;;;;5016030;28;20447;-74
2023/05/09 08:09:29;;;;;;;48.88;32.08;;;16.80;99.90;;;;;;5015591;28;20247;-73
2023/05/09 08:11:55;;;;;;;48.40;30.77;;;16.80;99.90;;;;;;4982474;28;20153;-75
2023/05/09 08:14:21;;;;;;;49.33;28.92;;;16.80;99.90;;;;;;5015972;28;20054;-73
2023/05/09 08:16:46;;;;;;;51.65;32.22;;;16.90;99.90;;;;;;5016022;28;20129;-73
2023/05/09 08:19:12;;;;;;;49.03;30.77;;;17.00;99.90;;;;;;5016011;28;20112;-73
2023/05/09 08:21:38;;;;;;;50.22;30.23;;;17.00;99.90;;;;;;5015590;28;20050;-73
2023/05/09 08:24:06;;;;;;;54.03;30.77;;;17.00;99.90;;;;;;5015584;28;20056;-73
2023/05/09 08:26:33;;;;;;;49.05;29.00;;;17.10;99.90;;;;;;4998365;28;20054;-73
2023/05/09 08:28:59;;;;;;;46.10;30.05;;;17.10;99.90;;;;;;5015387;28;20398;-73
2023/05/09 08:31:25;;;;;;;49.90;29.98;;;17.20;99.90;;;;;;5015397;28;20041;-74
2023/05/09 08:33:52;;;;;;;45.00;28.95;;;17.30;99.90;;;;;;5015342;28;20057;-73
2023/05/09 08:36:17;;;;;;;48.63;28.05;;;17.40;99.90;;;;;;5015159;28;20537;-73
2023/05/09 08:38:43;;;;;;;46.85;29.60;;;17.60;99.90;;;;;;5015054;28;20053;-73
2023/05/09 08:41:09;;;;;;;47.25;28.58;;;17.60;99.90;;;;;;5015531;28;20128;-73
2023/05/09 08:43:37;;;;;;;49.45;28.63;;;17.70;99.90;;;;;;4997788;28;20065;-73
2023/05/09 08:46:08;;;;;;;48.38;29.25;;;17.70;99.90;;;;;;4997766;28;20386;-73
2023/05/09 08:48:38;;;;;;;44.08;27.13;;;17.90;99.90;;;;;;5015081;28;20129;-74
2023/05/09 08:51:05;;;;;;;44.17;26.63;;;18.00;99.90;;;;;;5015009;28;20081;-73
2023/05/09 08:53:32;;;;;;;49.00;29.63;;;18.20;99.90;;;;;;4997794;28;20050;-76
2023/05/09 08:55:59;;;;;;;45.50;27.38;;;18.40;99.90;;;;;;5014923;28;20501;-74
2023/05/09 08:58:25;;;;;;;46.05;27.13;;;18.50;99.90;;;;;;5015549;28;20629;-73
2023/05/09 09:00:51;;;;;;;46.10;26.23;;;18.50;99.90;;;;;;5014846;28;20140;-74
2023/05/09 09:03:17;;;;;;;45.47;26.08;;;18.50;99.90;;;;;;5015156;28;20099;-76
2023/05/09 09:05:45;;;;;;;36.75;24.40;;;18.50;99.90;;;;;;5014824;28;20056;-73
2023/05/09 09:08:13;;;;;;;35.67;23.77;;;18.70;99.90;;;;;;5015188;28;20053;-74
2023/05/09 09:10:46;;;;;;;37.83;21.90;;;18.70;99.90;;;;;;5013820;28;20054;-74
2023/05/09 09:13:13;;;;;;;39.38;24.15;;;18.70;99.90;;;;;;5014917;28;20060;-73
2023/05/09 09:15:41;;;;;;;41.50;22.67;;;18.70;99.90;;;;;;5014672;28;20041;-74
2023/05/09 09:18:10;;;;;;;44.17;24.48;;;18.80;99.90;;;;;;5014496;28;20046;-74
2023/05/09 09:20:48;;;;;;;36.05;21.33;;;18.90;99.90;;;;;;5014503;28;20053;-76
2023/05/09 09:23:19;;;;;;;34.65;20.35;;;18.90;99.90;;;;;;5014295;28;20084;-74
2023/05/09 09:25:46;;;;;;;40.97;23.25;;;19.00;99.90;;;;;;4997291;28;20108;-76
2023/05/09 09:28:11;;;;;;;36.42;22.10;;;19.00;99.90;;;;;;5014661;28;20140;-74
2023/05/09 09:30:43;;;;;;;30.52;20.40;;;19.10;99.90;;;;;;4996843;28;20061;-74
2023/05/09 09:33:09;;;;;;;30.92;20.42;;;19.10;99.90;;;;;;5014848;28;20049;-74
2023/05/09 09:35:39;;;;;;;31.35;20.05;;;19.10;99.90;;;;;;4996630;28;20481;-76
2023/05/09 09:38:06;;;;;;;31.85;19.48;;;19.10;99.90;;;;;;5014131;28;20107;-76
2023/05/09 09:40:31;;;;;;;33.45;19.60;;;19.10;99.90;;;;;;4996311;28;20407;-74
2023/05/09 09:42:57;;;;;;;33.50;20.08;;;19.00;99.90;;;;;;5014286;28;20053;-74
2023/05/09 09:45:23;;;;;;;39.33;22.42;;;19.00;99.90;;;;;;5013986;28;20042;-74
2023/05/09 09:47:49;;;;;;;30.52;18.70;;;19.10;99.90;;;;;;4996432;28;20042;-75
2023/05/09 09:50:15;;;;;;;29.83;19.65;;;19.10;99.90;;;;;;5014016;28;20550;-74
2023/05/09 09:52:52;;;;;;;29.60;19.27;;;19.10;99.90;;;;;;5013867;28;20042;-83
2023/05/09 09:55:19;;;;;;;27.20;18.83;;;19.10;99.90;;;;;;5013744;28;20064;-85
2023/05/09 09:57:46;;;;;;;28.35;18.92;;;19.20;99.90;;;;;;5014216;28;20049;-85
2023/05/09 10:00:14;;;;;;;32.53;20.63;;;19.20;99.90;;;;;;4996988;28;20139;-75
2023/05/09 10:02:54;;;;;;;26.70;17.38;;;19.20;99.90;;;;;;5013657;28;20060;-76
2023/05/09 10:05:20;;;;;;;29.40;18.98;;;19.10;99.90;;;;;;5013922;28;20046;-76
2023/05/09 10:07:59;;;;;;;29.80;19.70;;;19.10;99.90;;;;;;5013686;28;20100;-76
2023/05/09 10:10:31;;;;;;;31.08;19.73;;;19.00;99.90;;;;;;4996067;28;20057;-76
2023/05/09 10:12:59;;;;;;;27.58;18.85;;;19.00;99.90;;;;;;5013526;28;20100;-75
2023/05/09 10:15:27;;;;;;;28.08;19.45;;;18.80;99.90;;;;;;4996094;28;20058;-75
2023/05/09 10:17:57;;;;;;;23.67;19.17;;;18.90;99.90;;;;;;5013375;28;20533;-76
2023/05/09 10:20:24;;;;;;;31.85;20.05;;;19.00;99.90;;;;;;5013072;28;20041;-76
2023/05/09 10:22:55;;;;;;;29.17;18.83;;;19.30;99.90;;;;;;5012782;28;20046;-75
2023/05/09 10:25:31;;;;;;;27.17;17.90;;;19.40;99.90;;;;;;5013315;28;20049;-76
2023/05/09 10:28:00;;;;;;;27.83;18.30;;;19.70;99.90;;;;;;5012890;28;20088;-76
2023/05/09 10:30:36;;;;;;;29.15;19.15;;;19.70;99.90;;;;;;5013088;28;20382;-76
2023/05/09 10:33:10;;;;;;;31.13;19.58;;;19.90;99.90;;;;;;5013447;28;20457;-75
2023/05/09 10:35:39;;;;;;;29.95;19.27;;;20.10;99.90;;;;;;5012842;28;20516;-76
2023/05/09 10:38:06;;;;;;;29.60;19.70;;;20.30;99.90;;;;;;5012942;28;20049;-75
2023/05/09 10:40:33;;;;;;;32.78;19.10;;;20.40;99.90;;;;;;5013433;28;20416;-75
2023/05/09 10:42:59;;;;;;;25.25;18.33;;;20.50;99.90;;;;;;5013355;28;20054;-76
2023/05/09 10:45:25;;;;;;;29.92;17.23;;;20.60;99.90;;;;;;5012954;28;20135;-76
2023/05/09 10:47:52;;;;;;;26.70;18.45;;;20.60;99.90;;;;;;5013174;28;20082;-77
2023/05/09 10:50:20;;;;;;;25.17;16.05;;;20.60;99.90;;;;;;5012742;28;20046;-76
2023/05/09 10:53:06;;;;;;;24.27;15.85;;;20.50;99.90;;;;;;5012967;28;20104;-76
2023/05/09 10:55:59;;;;;;;22.70;14.98;;;20.50;99.90;;;;;;5012797;28;20582;-76
2023/05/09 10:58:32;;;;;;;25.33;15.93;;;20.50;99.90;;;;;;4993436;28;20494;-78
2023/05/09 11:01:03;;;;;;;19.85;14.18;;;20.60;99.90;;;;;;5013174;28;20042;-77
2023/05/09 11:03:55;;;;;;;20.80;12.73;;;20.70;99.90;;;;;;5012788;28;20128;-77
2023/05/09 11:06:43;;;;;;;20.63;14.55;;;20.80;99.90;;;;;;5012745;28;20079;-81
2023/05/09 11:09:32;;;;;;;20.45;12.73;;;20.90;99.90;;;;;;5012572;28;20054;-83
2023/05/09 11:12:09;;;;;;;21.23;14.75;;;21.10;99.90;;;;;;5013235;28;20485;-82
2023/05/09 11:14:34;;;;;;;22.35;14.70;;;21.10;99.90;;;;;;4995925;28;20065;-82
2023/05/09 11:17:05;;;;;;;23.90;15.45;;;20.90;99.90;;;;;;5012647;28;20485;-81
2023/05/09 11:19:51;;;;;;;20.92;14.57;;;20.90;99.90;;;;;;5013074;28;20172;-83
2023/05/09 11:22:20;;;;;;;19.13;14.32;;;20.90;99.90;;;;;;5011642;28;20052;-82
2023/05/09 11:24:51;;;;;;;22.20;12.75;;;20.80;99.90;;;;;;4995164;28;20052;-82
2023/05/09 11:27:22;;;;;;;21.92;13.82;;;20.80;99.90;;;;;;4995766;28;20057;-82
2023/05/09 11:29:52;;;;;;;20.20;14.40;;;20.60;99.90;;;;;;4995140;28;20052;-85
2023/05/09 11:32:26;;;;;;;19.85;14.10;;;20.50;99.90;;;;;;5012453;28;20054;-84
2023/05/09 11:35:04;;;;;;;22.60;14.45;;;20.50;99.90;;;;;;4997804;28;20104;-84
2023/05/09 11:37:31;;;;;;;23.17;14.10;;;20.60;99.90;;;;;;5016253;28;20131;-84
2023/05/09 11:39:59;;;;;;;21.10;14.48;;;20.80;99.90;;;;;;5015860;28;20525;-83
2023/05/09 11:42:27;;;;;;;25.42;16.10;;;20.90;99.90;;;;;;5014815;28;20062;-83
2023/05/09 11:44:53;;;;;;;22.55;14.85;;;21.00;99.90;;;;;;4997785;28;20065;-83
2023/05/09 11:47:20;;;;;;;21.42;15.38;;;21.00;99.90;;;;;;5014757;28;20049;-83
2023/05/09 11:49:50;;;;;;;22.63;15.73;;;20.90;99.90;;;;;;5014956;28;20097;-82
2023/05/09 11:52:20;;;;;;;20.77;14.18;;;20.90;99.90;;;;;;5015112;28;20053;-82
2023/05/09 11:54:46;;;;;;;22.08;15.60;;;21.00;99.90;;;;;;4997963;28;20486;-82
2023/05/09 11:57:16;;;;;;;24.95;15.52;;;21.00;99.90;;;;;;5014757;28;20081;-83
2023/05/09 11:59:43;;;;;;;25.02;15.20;;;20.80;99.90;;;;;;5014587;28;20478;-82
2023/05/09 12:02:09;;;;;;;22.88;15.98;;;20.70;99.90;;;;;;4981729;28;20046;-82
2023/05/09 12:04:35;;;;;;;21.50;14.55;;;20.60;99.90;;;;;;5014201;28;20049;-82
2023/05/09 12:07:01;;;;;;;24.30;15.50;;;20.50;99.90;;;;;;4997399;28;20147;-82
2023/05/09 12:09:32;;;;;;;29.45;15.65;;;20.50;99.90;;;;;;4997538;28;20042;-82
2023/05/09 12:11:59;;;;;;;24.10;15.00;;;20.50;99.90;;;;;;4996831;28;20049;-83
2023/05/09 12:14:29;;;;;;;24.25;14.95;;;20.50;99.90;;;;;;5014428;28;20054;-82
2023/05/09 12:16:56;;;;;;;25.85;17.27;;;20.70;99.90;;;;;;5015064;28;20049;-80
2023/05/09 12:19:25;;;;;;;31.08;20.42;;;20.80;99.90;;;;;;5014774;28;20048;-82
2023/05/09 12:21:56;;;;;;;31.20;21.08;;;21.00;99.90;;;;;;4981494;28;20125;-84
2023/05/09 12:24:22;;;;;;;30.88;22.05;;;21.00;99.90;;;;;;5014252;28;20050;-85
2023/05/09 12:26:49;;;;;;;38.45;25.48;;;21.10;99.90;;;;;;5014156;28;20077;-84
2023/05/09 12:29:17;;;;;;;40.97;25.60;;;21.10;99.90;;;;;;5013865;28;20479;-82
2023/05/09 12:31:43;;;;;;;37.17;23.85;;;21.00;99.90;;;;;;5014425;28;20045;-75